Time;durP1;ratioP1;P1;durP2;ratioP2;P2;SDS_P1;SDS_P2;PMS_P1;PMS_P2;Temp;Humidity;BMP_temperature;BMP_pressure;BME280_temperature;BME280_humidity;BME280_pressure;Samples;Min_cycle;Max_cycle;Signal;HPM_P1;HPM_P2
2023/08/25 00:04:19;;;;;;;7.10;4.68;;;;;;;20.58;69.96;99791.03;10148490;29;20055;-77
2023/08/25 00:09:22;;;;;;;9.15;5.03;;;;;;;20.60;70.62;99781.59;10129527;29;20059;-77
2023/08/25 00:14:24;;;;;;;9.40;4.97;;;;;;;20.59;70.40;99759.97;10130349;28;20103;-77
2023/08/25 00:19:29;;;;;;;6.95;5.15;;;;;;;20.50;70.71;99771.06;10128437;28;20048;-77
2023/08/25 00:24:32;;;;;;;7.20;4.88;;;;;;;20.38;71.31;99780.00;10127285;29;20477;-77
2023/08/25 00:29:35;;;;;;;9.65;4.78;;;;;;;20.38;70.81;99764.53;10127195;29;20056;-77
2023/08/25 00:34:39;;;;;;;5.65;4.75;;;;;;;20.55;69.94;99730.38;10140195;29;20100;-76
2023/08/25 00:39:42;;;;;;;7.72;4.13;;;;;;;20.61;70.13;99725.13;10143115;29;20056;-76
2023/08/25 00:44:46;;;;;;;6.28;4.10;;;;;;;20.50;70.86;99712.94;10127768;28;20056;-77
2023/08/25 00:49:51;;;;;;;5.43;3.85;;;;;;;20.47;70.36;99703.28;10124415;29;20716;-76
2023/08/25 00:54:56;;;;;;;7.50;4.25;;;;;;;20.43;70.58;99684.78;10123248;29;20052;-77
2023/08/25 00:59:59;;;;;;;4.32;3.78;;;;;;;20.31;71.43;99660.84;10129366;29;20058;-76
2023/08/25 01:05:04;;;;;;;4.63;3.30;;;;;;;20.36;71.72;99634.84;10092487;29;1056656;-77
2023/08/25 01:10:09;;;;;;;6.97;3.28;;;;;;;20.46;71.03;99622.50;10125541;28;20056;-76
2023/08/25 01:15:21;;;;;;;4.63;3.30;;;;;;;20.55;69.77;99644.97;10126064;29;20052;-77
2023/08/25 01:20:27;;;;;;;6.80;3.47;;;;;;;20.60;69.83;99672.47;10125750;29;20060;-77
2023/08/25 01:25:32;;;;;;;7.55;3.10;;;;;;;20.47;69.99;99703.28;10128868;29;20061;-77
2023/08/25 01:30:36;;;;;;;7.07;3.20;;;;;;;20.18;69.98;99718.03;10127021;29;20056;-77
2023/08/25 01:35:51;;;;;;;5.97;3.25;;;;;;;20.27;69.83;99721.44;10120274;28;20044;-77
2023/08/25 01:41:03;;;;;;;4.72;3.17;;;;;;;19.69;72.17;99721.75;10120212;29;20945;-76
2023/08/25 01:46:10;;;;;;;7.05;3.35;;;;;;;19.64;71.28;99719.66;10117924;29;20104;-76
2023/08/25 01:51:15;;;;;;;5.65;2.80;;;;;;;20.08;69.46;99718.41;10120038;29;20395;-77
2023/08/25 01:56:19;;;;;;;3.95;2.55;;;;;;;19.89;69.66;99711.81;10116587;29;20156;-76
2023/08/25 02:01:22;;;;;;;6.10;2.83;;;;;;;20.00;69.40;99720.47;10114592;28;20052;-77
2023/08/25 02:06:25;;;;;;;6.30;2.83;;;;;;;19.90;69.70;99724.41;10112129;29;20055;-77
2023/08/25 02:11:29;;;;;;;6.75;3.17;;;;;;;19.76;71.08;99730.00;10122586;29;21148;-76
2023/08/25 02:16:32;;;;;;;8.05;3.58;;;;;;;19.60;71.89;99725.69;10124450;29;20060;-77
2023/08/25 02:21:35;;;;;;;5.10;3.70;;;;;;;19.53;72.17;99744.69;10123995;29;20056;-76
2023/08/25 02:26:40;;;;;;;6.30;3.53;;;;;;;19.03;74.53;99749.28;10113776;28;21186;-76
2023/08/25 02:31:44;;;;;;;7.25;4.35;;;;;;;19.16;73.84;99752.13;10120569;29;20064;-77
2023/08/25 02:36:46;;;;;;;5.07;4.30;;;;;;;19.12;74.45;99755.44;10125188;29;20063;-76
2023/08/25 02:41:52;;;;;;;7.55;4.50;;;;;;;19.26;73.67;99731.91;10115633;29;20193;-77
2023/08/25 02:46:57;;;;;;;7.32;4.45;;;;;;;19.30;73.50;99738.63;10113493;29;20066;-74
2023/08/25 02:52:00;;;;;;;5.72;4.15;;;;;;;19.29;73.56;99728.78;10120313;29;20084;-77
2023/08/25 02:57:04;;;;;;;6.03;4.05;;;;;;;19.30;73.53;99712.22;10122522;29;20059;-77
2023/08/25 03:02:07;;;;;;;6.75;4.32;;;;;;;19.30;73.84;99712.22;10132718;29;20052;-77
2023/08/25 03:07:10;;;;;;;7.65;4.22;;;;;;;19.31;73.78;99704.91;10112615;29;20083;-76
2023/08/25 03:12:17;;;;;;;6.28;4.78;;;;;;;19.21;74.03;99708.00;10114963;29;20052;-75
2023/08/25 03:17:20;;;;;;;7.53;5.13;;;;;;;19.19;74.31;99708.16;10127655;29;20786;-76
2023/08/25 03:22:24;;;;;;;5.45;4.45;;;;;;;19.25;74.04;99701.09;10121931;28;20653;-77
2023/08/25 03:27:32;;;;;;;6.72;4.38;;;;;;;19.24;73.88;99700.25;10135989;28;20052;-76
2023/08/25 03:32:36;;;;;;;8.75;4.70;;;;;;;19.11;74.83;99696.59;10123509;29;20106;-75
2023/08/25 03:37:39;;;;;;;8.60;4.80;;;;;;;18.98;75.54;99684.56;10113329;29;20060;-76
2023/08/25 03:42:43;;;;;;;7.47;4.88;;;;;;;18.95;75.72;99686.81;10120172;29;20075;-76
2023/08/25 03:47:47;;;;;;;5.85;5.20;;;;;;;18.93;75.87;99689.75;10122777;29;20045;-76
2023/08/25 03:52:52;;;;;;;8.60;5.93;;;;;;;18.94;75.59;99677.81;10114680;28;21158;-76
2023/08/25 03:57:56;;;;;;;9.65;6.15;;;;;;;18.89;75.63;99683.00;10126313;28;20056;-75
2023/08/25 04:02:59;;;;;;;7.10;5.30;;;;;;;18.89;75.69;99674.84;10122636;29;20056;-76
2023/08/25 04:08:02;;;;;;;11.07;7.32;;;;;;;18.77;76.23;99660.06;10119360;29;20052;-76
2023/08/25 04:13:07;;;;;;;7.32;6.68;;;;;;;18.72;76.64;99674.25;10118514;29;20056;-73
2023/08/25 04:18:10;;;;;;;11.02;6.40;;;;;;;18.63;77.33;99674.59;10119195;28;20061;-76
2023/08/25 04:23:13;;;;;;;15.77;8.43;;;;;;;18.56;78.14;99675.34;10135227;28;20051;-76
2023/08/25 04:28:17;;;;;;;14.65;9.60;;;;;;;18.54;78.46;99673.84;10127059;29;20428;-76
2023/08/25 04:33:20;;;;;;;12.15;8.20;;;;;;;18.61;78.31;99673.94;10119862;29;21532;-76
2023/08/25 04:38:23;;;;;;;14.82;9.05;;;;;;;18.62;78.18;99672.88;10136511;29;20435;-76
2023/08/25 04:43:28;;;;;;;12.02;8.20;;;;;;;18.78;77.82;99657.16;10121640;28;20400;-76
2023/08/25 04:48:31;;;;;;;6.32;3.55;;;;;;;19.20;76.66;99660.03;10115388;28;20432;-76
2023/08/25 04:53:34;;;;;;;5.72;4.75;;;;;;;19.52;74.45;99652.28;10117569;29;20052;-76
2023/08/25 04:58:39;;;;;;;5.30;4.38;;;;;;;19.62;73.75;99653.63;10124628;29;20055;-76
2023/08/25 05:03:44;;;;;;;8.65;4.30;;;;;;;19.74;72.90;99658.50;10127300;29;20071;-75
2023/08/25 05:08:48;;;;;;;5.07;3.88;;;;;;;19.74;72.81;99659.34;10130677;29;20052;-76
2023/08/25 05:13:52;;;;;;;8.13;4.43;;;;;;;19.70;72.03;99662.69;10126768;28;20716;-76
2023/08/25 05:18:55;;;;;;;9.27;5.40;;;;;;;19.68;72.69;99666.44;10122925;29;20063;-76
2023/08/25 05:24:17;;;;;;;10.00;5.78;;;;;;;19.84;72.22;99665.25;10121944;29;20045;-76
2023/08/25 05:29:22;;;;;;;7.70;5.18;;;;;;;19.89;71.80;99664.66;10120055;29;20112;-76
2023/08/25 05:34:26;;;;;;;7.65;4.95;;;;;;;20.06;71.75;99668.72;10125056;29;20470;-74
2023/08/25 05:39:31;;;;;;;8.40;5.15;;;;;;;20.11;71.80;99679.00;10119922;28;20189;-76
2023/08/25 05:44:36;;;;;;;16.85;10.35;;;;;;;20.09;71.93;99692.81;10114514;29;20060;-76
2023/08/25 05:49:41;;;;;;;14.98;9.93;;;;;;;20.09;72.43;99678.38;10116711;29;20052;-77
2023/08/25 05:54:44;;;;;;;16.05;10.90;;;;;;;20.03;73.11;99704.56;10128505;29;21165;-76
2023/08/25 05:59:48;;;;;;;21.00;14.85;;;;;;;19.98;73.87;99707.03;10129100;29;20055;-75
2023/08/25 06:04:51;;;;;;;24.05;17.10;;;;;;;20.09;74.23;99692.81;10124598;29;20043;-77
2023/08/25 06:09:54;;;;;;;29.02;18.73;;;;;;;20.15;74.25;99687.63;10124563;28;20054;-77
2023/08/25 06:14:58;;;;;;;31.25;19.00;;;;;;;20.27;73.77;99684.09;10125487;28;20112;-76
2023/08/25 06:20:03;;;;;;;29.67;19.65;;;;;;;20.32;73.74;99681.63;10131657;29;20048;-76
2023/08/25 06:25:07;;;;;;;23.83;18.70;;;;;;;20.33;74.02;99677.84;10133847;29;20066;-76
2023/08/25 06:30:13;;;;;;;28.50;19.73;;;;;;;20.57;73.93;99675.63;10135774;29;20088;-77
2023/08/25 06:35:15;;;;;;;28.65;20.60;;;;;;;20.65;72.77;99678.16;10125520;29;20416;-77
2023/08/25 06:40:18;;;;;;;31.75;18.45;;;;;;;20.79;73.19;99677.09;10124051;28;20041;-77
2023/08/25 06:45:23;;;;;;;28.52;18.52;;;;;;;20.81;72.69;99679.63;10129426;28;20597;-77
2023/08/25 06:50:26;;;;;;;29.90;19.23;;;;;;;21.04;71.81;99678.41;10132777;29;20432;-76
2023/08/25 06:55:29;;;;;;;26.50;19.92;;;;;;;21.14;71.78;99673.34;10136018;29;20194;-77
2023/08/25 07:00:34;;;;;;;24.52;16.58;;;;;;;21.28;71.24;99649.59;10118936;29;20048;-77
2023/08/25 07:05:38;;;;;;;22.98;17.83;;;;;;;21.78;70.38;99636.28;10118864;28;20716;-76
2023/08/25 07:10:40;;;;;;;21.23;15.20;;;;;;;22.01;68.75;99636.59;10125584;28;20053;-76
2023/08/25 07:15:45;;;;;;;21.25;13.13;;;;;;;22.48;66.60;99650.03;10131615;28;20056;-75
2023/08/25 07:20:48;;;;;;;25.52;13.45;;;;;;;22.64;65.50;99649.50;10121309;29;20055;-77
2023/08/25 07:25:52;;;;;;;22.27;16.10;;;;;;;22.57;66.56;99677.97;10119698;29;20058;-77
2023/08/25 07:30:59;;;;;;;22.55;18.80;;;;;;;22.16;67.43;99677.34;10121346;29;20060;-76
2023/08/25 07:36:03;;;;;;;28.42;20.55;;;;;;;21.84;69.10;99669.06;10132271;28;20060;-76
2023/08/25 07:41:07;;;;;;;23.83;17.83;;;;;;;22.91;66.32;99676.69;10134264;28;20139;-76
2023/08/25 07:46:11;;;;;;;28.02;20.73;;;;;;;23.40;63.49;99683.25;10139001;28;20055;-78
2023/08/25 07:51:16;;;;;;;27.38;19.88;;;;;;;23.84;62.62;99676.69;10130143;29;20044;-78
2023/08/25 07:56:32;;;;;;;22.02;18.58;;;;;;;24.09;60.70;99676.59;10125672;29;20543;-77
2023/08/25 08:01:36;;;;;;;22.50;17.85;;;;;;;24.23;61.52;99684.66;10126193;29;20063;-78
2023/08/25 08:06:39;;;;;;;17.33;13.85;;;;;;;24.36;60.46;99670.78;10127851;29;20052;-77
2023/08/25 08:11:42;;;;;;;13.40;11.27;;;;;;;24.88;59.25;99683.97;10127359;29;20058;-77
2023/08/25 08:16:47;;;;;;;17.73;12.93;;;;;;;25.82;57.46;99684.88;10121849;29;20984;-79
2023/08/25 08:21:50;;;;;;;12.48;9.88;;;;;;;25.89;55.48;99697.66;10136527;29;20208;-76
2023/08/25 08:26:53;;;;;;;9.82;8.30;;;;;;;25.55;56.48;99684.53;10132173;28;20056;-77
2023/08/25 08:31:57;;;;;;;10.98;7.93;;;;;;;25.78;55.34;99683.72;10130973;28;20066;-78
2023/08/25 08:37:00;;;;;;;11.23;8.13;;;;;;;24.89;58.01;99704.88;10130845;29;20059;-76
2023/08/25 08:42:04;;;;;;;12.02;7.82;;;;;;;24.59;59.29;99708.47;10137877;29;20055;-77
2023/08/25 08:47:09;;;;;;;11.55;7.22;;;;;;;24.56;59.12;99697.97;10131074;29;20063;-77
2023/08/25 08:52:12;;;;;;;9.23;6.13;;;;;;;24.26;60.38;99703.41;10131132;29;20059;-77
2023/08/25 08:57:15;;;;;;;9.50;6.88;;;;;;;24.06;60.33;99720.97;10138345;28;20051;-76
2023/08/25 09:02:20;;;;;;;8.98;7.60;;;;;;;23.35;62.13;99736.00;10130150;28;20070;-74
2023/08/25 09:07:26;;;;;;;11.70;8.55;;;;;;;23.17;63.49;99768.78;10128425;29;20056;-77
2023/08/25 09:12:29;;;;;;;10.73;8.63;;;;;;;22.85;64.90;99767.94;10133569;28;20432;-78
2023/08/25 09:17:35;;;;;;;11.98;9.85;;;;;;;22.22;68.39;99790.53;10130179;28;20052;-77
2023/08/25 09:22:38;;;;;;;15.35;10.23;;;;;;;21.91;71.31;99796.69;10133678;28;20067;-77
2023/08/25 09:27:41;;;;;;;19.30;10.35;;;;;;;21.35;73.80;99806.13;10138125;28;20052;-77
2023/08/25 09:32:45;;;;;;;18.92;12.32;;;;;;;21.14;77.37;99794.34;10124408;29;20056;-77
2023/08/25 09:37:48;;;;;;;15.15;12.05;;;;;;;20.64;81.42;99785.59;10134870;29;20519;-75
2023/08/25 09:42:57;;;;;;;18.38;12.60;;;;;;;20.54;81.58;99788.72;10134939;29;20067;-77
2023/08/25 09:48:08;;;;;;;14.77;12.10;;;;;;;20.64;81.71;99788.31;10135127;29;20669;-76
2023/08/25 09:53:13;;;;;;;17.70;13.47;;;;;;;20.68;82.31;99754.13;10132636;28;20044;-77
2023/08/25 09:58:16;;;;;;;14.18;10.00;;;;;;;20.46;83.00;99752.56;10138196;29;20048;-76
2023/08/25 10:03:21;;;;;;;18.52;11.88;;;;;;;20.06;85.60;99730.56;10132411;29;20067;-77
2023/08/25 10:08:25;;;;;;;21.33;12.40;;;;;;;19.22;89.23;99764.09;10140534;29;20060;-77
2023/08/25 10:13:30;;;;;;;20.88;13.27;;;;;;;18.78;93.06;99774.16;10144522;29;20062;-77
2023/08/25 10:18:40;;;;;;;21.13;12.65;;;;;;;18.82;94.34;99747.41;10144008;28;20134;-77
2023/08/25 10:23:44;;;;;;;22.17;14.82;;;;;;;18.85;95.80;99727.16;10135653;28;20772;-77
2023/08/25 10:28:48;;;;;;;20.45;13.15;;;;;;;18.67;97.47;99676.69;10153978;29;20052;-77
2023/08/25 10:33:54;;;;;;;24.77;14.00;;;;;;;18.67;99.92;99670.41;10143200;29;20175;-78
2023/08/25 10:39:10;;;;;;;22.75;14.88;;;;;;;18.57;100.00;99663.44;10131301;29;21222;-78
2023/08/25 10:44:21;;;;;;;23.23;16.15;;;;;;;18.57;100.00;99679.75;10129870;28;20080;-79
2023/08/25 10:49:26;;;;;;;22.20;15.98;;;;;;;18.50;100.00;99664.41;10139113;29;20048;-77
2023/08/25 10:54:29;;;;;;;26.85;17.92;;;;;;;18.23;100.00;99641.53;10141604;28;20161;-76
2023/08/25 10:59:33;;;;;;;24.38;17.58;;;;;;;18.61;100.00;99608.66;10136093;29;20055;-78
2023/08/25 11:04:39;;;;;;;28.80;17.95;;;;;;;18.85;100.00;99610.16;10139745;29;20083;-79
2023/08/25 11:09:44;;;;;;;24.75;16.63;;;;;;;18.91;100.00;99590.31;10135951;28;20059;-77
2023/08/25 11:14:50;;;;;;;21.30;14.15;;;;;;;18.75;100.00;99615.88;10131821;29;20055;-77
2023/08/25 11:19:55;;;;;;;20.05;14.13;;;;;;;18.76;100.00;99629.31;10131691;29;20175;-78
2023/08/25 11:25:01;;;;;;;18.17;14.30;;;;;;;18.91;100.00;99672.78;10133274;29;20128;-77
2023/08/25 11:30:12;;;;;;;18.25;14.73;;;;;;;18.92;100.00;99696.22;10126319;29;20071;-77
2023/08/25 11:35:18;;;;;;;21.08;14.32;;;;;;;18.93;100.00;99740.63;10124943;28;20052;-77
2023/08/25 11:40:24;;;;;;;26.42;14.57;;;;;;;18.58;100.00;99768.47;10130787;29;20401;-77
2023/08/25 11:45:28;;;;;;;21.00;15.10;;;;;;;18.63;100.00;99800.53;10118253;29;20135;-76
2023/08/25 11:50:38;;;;;;;19.35;14.77;;;;;;;18.68;100.00;99803.53;10120047;29;20061;-76
2023/08/25 11:55:42;;;;;;;19.63;13.40;;;;;;;18.63;100.00;99824.19;10131501;29;20047;-76
2023/08/25 12:00:53;;;;;;;14.27;11.32;;;;;;;18.45;100.00;99810.97;10127034;28;20094;-75
2023/08/25 12:05:59;;;;;;;15.70;13.70;;;;;;;18.46;100.00;99796.34;10128027;29;20490;-75
2023/08/25 12:11:06;;;;;;;13.43;9.75;;;;;;;18.10;100.00;99791.66;10126118;28;20059;-75
2023/08/25 12:16:12;;;;;;;8.40;7.45;;;;;;;18.12;100.00;99789.63;10125549;29;20040;-74
2023/08/25 12:21:18;;;;;;;13.20;8.70;;;;;;;18.01;100.00;99833.56;10128759;29;20143;-75
2023/08/25 12:26:23;;;;;;;14.10;10.25;;;;;;;18.24;100.00;99826.19;10125064;29;20056;-74
2023/08/25 12:31:27;;;;;;;15.20;9.95;;;;;;;18.20;100.00;99796.84;10119022;28;20051;-75
2023/08/25 12:36:33;;;;;;;12.77;8.20;;;;;;;18.44;100.00;99788.38;10116265;29;20136;-76
2023/08/25 12:41:38;;;;;;;11.20;7.80;;;;;;;18.46;100.00;99758.28;10113705;29;20076;-76
2023/08/25 12:46:47;;;;;;;7.68;6.90;;;;;;;18.65;100.00;99696.97;10122793;29;20063;-77
2023/08/25 12:51:52;;;;;;;11.90;7.95;;;;;;;19.02;100.00;99620.53;10121594;29;21016;-77
2023/08/25 12:56:57;;;;;;;10.32;7.20;;;;;;;19.02;99.31;99616.97;10126038;28;20784;-77
2023/08/25 13:02:00;;;;;;;9.68;7.35;;;;;;;19.60;100.00;99597.66;10116284;29;20479;-76
2023/08/25 13:07:06;;;;;;;9.30;6.95;;;;;;;19.87;97.06;99612.25;10114389;29;20637;-76
2023/08/25 13:12:11;;;;;;;8.35;6.15;;;;;;;20.13;94.69;99627.84;10112474;29;20052;-76
2023/08/25 13:17:17;;;;;;;11.10;5.80;;;;;;;19.99;94.99;99605.13;10117962;29;20056;-74
2023/08/25 13:22:25;;;;;;;8.52;4.10;;;;;;;20.06;91.27;99597.84;10116775;29;20049;-75
2023/08/25 13:27:28;;;;;;;6.75;4.50;;;;;;;20.74;87.47;99572.34;10113436;29;20103;-76
2023/08/25 13:32:34;;;;;;;7.32;3.33;;;;;;;20.48;85.74;99571.28;10109386;29;20071;-76
2023/08/25 13:37:39;;;;;;;4.80;3.22;;;;;;;21.07;87.86;99564.16;10106219;29;20056;-77
2023/08/25 13:42:42;;;;;;;5.90;3.58;;;;;;;21.72;83.99;99568.78;10113712;29;20045;-76
2023/08/25 13:47:45;;;;;;;7.78;3.53;;;;;;;21.44;81.05;99576.22;10128506;29;20487;-76
2023/08/25 13:52:50;;;;;;;5.72;2.83;;;;;;;21.00;81.31;99571.47;10130919;28;20142;-76
2023/08/25 13:57:53;;;;;;;4.82;2.90;;;;;;;21.51;80.08;99557.09;10129218;28;20129;-77
2023/08/25 14:02:57;;;;;;;4.85;3.20;;;;;;;22.25;81.35;99574.00;10129190;29;20696;-76
2023/08/25 14:08:02;;;;;;;2.58;2.13;;;;;;;23.52;75.79;99599.22;10132037;29;20154;-76
2023/08/25 14:13:05;;;;;;;4.40;1.83;;;;;;;24.27;73.24;99607.16;10132386;29;20047;-75
2023/08/25 14:18:07;;;;;;;2.65;1.70;;;;;;;22.90;70.56;99607.41;10133861;29;20044;-76
2023/08/25 14:23:12;;;;;;;4.97;1.58;;;;;;;22.08;70.48;99609.25;10128103;29;20564;-79
2023/08/25 14:28:15;;;;;;;4.28;1.63;;;;;;;21.92;70.94;99605.09;10129404;29;20052;-78
2023/08/25 14:33:18;;;;;;;2.47;2.28;;;;;;;22.51;71.57;99608.56;10138648;28;20059;-77
2023/08/25 14:38:22;;;;;;;4.78;2.05;;;;;;;22.32;69.53;99622.13;10141602;29;20052;-76
2023/08/25 14:43:25;;;;;;;2.67;1.98;;;;;;;24.24;70.94;99615.81;10144080;28;20621;-77
2023/08/25 14:48:28;;;;;;;4.45;1.98;;;;;;;24.37;65.30;99601.09;10136195;29;20051;-77
2023/08/25 14:53:32;;;;;;;2.38;1.80;;;;;;;24.65;62.43;99603.19;10142454;28;20143;-77
2023/08/25 14:58:35;;;;;;;3.53;1.80;;;;;;;25.16;59.29;99609.97;10141687;29;20055;-79
2023/08/25 15:03:38;;;;;;;2.88;1.70;;;;;;;24.13;61.10;99599.31;10142573;29;20056;-78
2023/08/25 15:08:43;;;;;;;5.75;1.63;;;;;;;23.39;63.85;99600.22;10137054;29;20067;-77
2023/08/25 15:13:46;;;;;;;7.05;1.90;;;;;;;22.81;65.64;99610.66;10135302;29;20440;-77
2023/08/25 15:18:49;;;;;;;5.57;1.90;;;;;;;22.38;66.43;99614.09;10132528;28;20064;-76
2023/08/25 15:23:54;;;;;;;3.33;1.73;;;;;;;22.58;67.13;99612.09;10140563;28;20461;-77
2023/08/25 15:28:57;;;;;;;3.25;2.05;;;;;;;23.09;66.45;99605.56;10131317;29;20048;-78
2023/08/25 15:34:00;;;;;;;5.00;2.13;;;;;;;23.70;64.70;99589.34;10146076;29;20048;-78
2023/08/25 15:39:04;;;;;;;2.17;1.70;;;;;;;24.28;61.13;99581.38;10130809;29;20174;-78
2023/08/25 15:44:07;;;;;;;1.95;1.55;;;;;;;24.43;62.12;99580.97;10133106;28;20688;-78
2023/08/25 15:49:10;;;;;;;2.75;1.70;;;;;;;25.14;62.31;99578.31;10139370;28;20232;-77
2023/08/25 15:54:15;;;;;;;2.38;1.85;;;;;;;26.16;59.29;99571.38;10131534;29;20058;-77
2023/08/25 15:59:18;;;;;;;3.40;1.73;;;;;;;25.96;58.08;99563.56;10149171;28;20663;-77
2023/08/25 16:04:21;;;;;;;4.78;1.98;;;;;;;26.41;54.98;99560.88;10129267;29;20044;-78
2023/08/25 16:09:25;;;;;;;3.20;1.63;;;;;;;26.02;54.47;99579.09;10146510;28;20051;-79
2023/08/25 16:14:28;;;;;;;2.13;1.58;;;;;;;25.85;55.26;99585.38;10151810;28;20150;-79
2023/08/25 16:19:32;;;;;;;2.58;1.65;;;;;;;26.09;55.02;99568.78;10132329;29;20132;-77
2023/08/25 16:24:37;;;;;;;2.50;1.88;;;;;;;26.15;53.43;99561.44;10148253;29;20052;-78
2023/08/25 16:29:45;;;;;;;4.65;1.95;;;;;;;25.99;54.83;99561.16;10155526;29;20607;-77
2023/08/25 16:34:48;;;;;;;3.25;1.67;;;;;;;25.73;55.57;99565.34;10147270;28;20796;-78
2023/08/25 16:39:52;;;;;;;2.92;1.80;;;;;;;26.16;54.16;99572.19;10157716;28;20051;-78
2023/08/25 16:44:55;;;;;;;2.90;2.20;;;;;;;25.55;55.27;99568.22;10143982;29;20052;-78
2023/08/25 16:49:58;;;;;;;3.95;1.83;;;;;;;24.80;57.33;99564.31;10154806;28;20070;-76
2023/08/25 16:55:03;;;;;;;3.25;2.45;;;;;;;24.06;59.89;99567.34;10146211;29;20392;-80
2023/08/25 17:00:07;;;;;;;2.22;1.92;;;;;;;23.06;63.60;99570.38;10152732;28;20058;-78
2023/08/25 17:05:12;;;;;;;4.85;2.60;;;;;;;22.66;65.06;99570.78;10156060;28;20059;-78
2023/08/25 17:10:17;;;;;;;5.68;1.98;;;;;;;22.23;64.96;99560.53;10149251;29;20052;-78
2023/08/25 17:15:27;;;;;;;2.72;1.80;;;;;;;22.17;64.65;99553.22;10152080;29;20048;-78
2023/08/25 17:20:31;;;;;;;3.95;1.85;;;;;;;22.34;64.60;99539.84;10161709;29;20052;-76
2023/08/25 17:25:35;;;;;;;6.47;1.80;;;;;;;22.29;64.61;99550.59;10143847;29;20066;-77
2023/08/25 17:30:38;;;;;;;4.07;2.03;;;;;;;22.32;64.48;99552.88;10140899;28;20055;-75
2023/08/25 17:35:42;;;;;;;2.72;1.90;;;;;;;22.38;64.52;99543.81;10162511;28;20157;-76
2023/08/25 17:40:46;;;;;;;3.75;1.90;;;;;;;22.38;64.09;99546.56;10140310;29;20052;-77
2023/08/25 17:45:49;;;;;;;2.83;2.13;;;;;;;22.20;65.25;99550.03;10137906;29;20059;-77
2023/08/25 17:50:52;;;;;;;2.72;2.00;;;;;;;22.08;65.92;99547.19;10137665;29;20591;-78
2023/08/25 17:55:57;;;;;;;4.65;2.17;;;;;;;21.97;66.57;99567.00;10142941;28;20048;-77
2023/08/25 18:01:03;;;;;;;5.10;3.47;;;;;;;21.93;67.68;99556.72;10142658;29;20059;-78
2023/08/25 18:06:06;;;;;;;7.13;2.88;;;;;;;21.86;68.46;99562.25;10161833;28;20201;-77
2023/08/25 18:11:10;;;;;;;4.57;2.60;;;;;;;21.87;69.14;99563.91;10142458;29;21170;-77
2023/08/25 18:21:51;;;;;;;6.03;3.28;;;;;;;21.81;70.40;99570.25;10570706;23;20057;-78
2023/08/25 18:26:55;;;;;;;4.32;2.55;;;;;;;21.71;71.26;99567.09;10288824;28;20097;-77
2023/08/25 18:31:58;;;;;;;3.30;3.00;;;;;;;21.56;72.36;99576.41;10253003;28;20429;-77
2023/08/25 18:37:04;;;;;;;5.63;3.38;;;;;;;21.57;72.62;99575.34;10257670;28;20464;-77
2023/08/25 18:42:08;;;;;;;4.80;3.42;;;;;;;21.62;72.63;99588.38;10252488;28;20058;-79
2023/08/25 18:47:11;;;;;;;3.75;3.45;;;;;;;21.58;72.71;99581.66;10252798;28;20066;-77
2023/08/25 18:52:14;;;;;;;3.25;2.95;;;;;;;21.57;72.94;99582.72;10254880;28;20069;-77
2023/08/25 18:57:25;;;;;;;3.55;2.90;;;;;;;21.57;72.71;99588.19;10264087;28;20058;-76
2023/08/25 19:02:27;;;;;;;4.20;2.92;;;;;;;21.54;73.07;99578.53;10254116;28;20046;-76
2023/08/25 19:07:31;;;;;;;4.00;2.88;;;;;;;21.53;73.02;99595.13;10251188;28;20986;-77
2023/08/25 19:12:36;;;;;;;4.30;2.85;;;;;;;21.51;72.97;99587.16;10248075;28;20721;-78
2023/08/25 19:17:38;;;;;;;5.10;3.08;;;;;;;21.49;72.99;99596.63;10250147;28;20062;-77
2023/08/25 19:22:41;;;;;;;3.95;2.75;;;;;;;21.45;72.84;99591.59;10249687;28;20142;-78
2023/08/25 19:27:46;;;;;;;5.28;3.63;;;;;;;21.42;72.64;99588.47;10259676;28;20133;-80
2023/08/25 19:32:49;;;;;;;4.65;3.40;;;;;;;21.38;72.48;99587.19;10252876;28;20054;-79
2023/08/25 19:37:52;;;;;;;5.82;3.88;;;;;;;21.32;72.69;99594.34;10260177;28;20969;-78
2023/08/25 19:42:56;;;;;;;3.15;2.85;;;;;;;21.36;73.00;99595.59;10243309;28;20501;-80
2023/08/25 19:47:59;;;;;;;4.53;3.58;;;;;;;21.32;72.80;99583.44;10258938;28;20055;-79
2023/08/25 19:53:02;;;;;;;7.93;3.13;;;;;;;21.30;73.02;99593.72;10253143;28;20059;-78
2023/08/25 19:58:07;;;;;;;5.18;3.20;;;;;;;21.31;72.88;99572.69;10252708;28;20053;-79
2023/08/25 20:03:10;;;;;;;3.08;2.78;;;;;;;21.34;72.95;99572.31;10245449;28;20054;-77
2023/08/25 20:08:14;;;;;;;4.13;2.85;;;;;;;21.27;73.57;99587.84;10260375;28;20051;-77
2023/08/25 20:13:18;;;;;;;5.53;3.30;;;;;;;20.84;78.90;99602.78;10251311;28;20070;-81
2023/08/25 20:18:22;;;;;;;16.67;6.53;;;;;;;18.78;100.00;99585.59;10250163;28;20053;-76
2023/08/25 20:23:25;;;;;;;49.97;6.50;;;;;;;18.53;100.00;99625.94;10250831;28;21172;-80
2023/08/25 20:28:31;;;;;;;15.23;5.45;;;;;;;18.85;100.00;99621.03;10244432;28;20096;-79
2023/08/25 20:33:34;;;;;;;8.20;5.60;;;;;;;18.75;100.00;99615.88;10246460;28;20248;-78
2023/08/25 20:38:36;;;;;;;11.15;7.22;;;;;;;18.75;100.00;99607.72;10270683;28;20065;-78
2023/08/25 20:43:41;;;;;;;9.85;7.40;;;;;;;18.86;100.00;99615.38;10270923;28;20089;-76
2023/08/25 20:48:48;;;;;;;12.77;8.45;;;;;;;18.79;100.00;99603.63;10248798;28;20050;-77
2023/08/25 20:53:53;;;;;;;12.63;9.90;;;;;;;18.93;100.00;99615.44;10254812;28;20055;-78
2023/08/25 20:58:58;;;;;;;15.45;10.57;;;;;;;18.92;100.00;99613.75;10261454;28;20493;-78
2023/08/25 21:04:01;;;;;;;12.90;10.43;;;;;;;18.87;100.00;99606.19;10252959;28;20903;-77
2023/08/25 21:09:06;;;;;;;15.15;11.25;;;;;;;18.85;100.00;99610.16;10249351;28;20062;-77
2023/08/25 21:14:11;;;;;;;17.92;13.18;;;;;;;18.84;100.00;99614.75;10252558;28;20183;-76
2023/08/25 21:19:14;;;;;;;22.65;15.25;;;;;;;18.85;100.00;99627.31;10250623;28;20058;-78
2023/08/25 21:24:17;;;;;;;21.80;15.45;;;;;;;18.92;100.00;99638.22;10262993;28;20058;-78
2023/08/25 21:29:21;;;;;;;20.27;15.57;;;;;;;18.90;100.00;99643.88;10259015;28;21420;-77
2023/08/25 21:34:24;;;;;;;22.95;17.00;;;;;;;18.96;100.00;99637.66;10270581;28;20046;-77
2023/08/25 21:39:28;;;;;;;27.88;19.80;;;;;;;18.97;100.00;99630.31;10262804;28;21158;-78
2023/08/25 21:44:33;;;;;;;25.73;19.33;;;;;;;18.91;99.42;99629.25;10257035;28;20524;-78
2023/08/25 21:49:35;;;;;;;27.55;20.30;;;;;;;18.92;99.52;99617.31;10266426;28;20407;-77
2023/08/25 21:54:39;;;;;;;31.90;21.30;;;;;;;18.80;99.59;99632.50;10265748;28;20077;-76
2023/08/25 21:59:43;;;;;;;34.60;23.15;;;;;;;18.75;99.80;99626.75;10242682;28;20096;-78
2023/08/25 22:04:46;;;;;;;36.88;22.27;;;;;;;18.65;100.00;99634.41;10232630;28;20058;-77
2023/08/25 22:09:49;;;;;;;43.25;25.00;;;;;;;18.79;98.81;99633.53;10253631;28;20073;-78
2023/08/25 22:14:54;;;;;;;39.72;25.88;;;;;;;18.75;98.84;99624.03;10255698;28;20054;-80
2023/08/25 22:19:57;;;;;;;42.75;25.92;;;;;;;18.79;98.82;99630.81;10256676;28;20060;-77
2023/08/25 22:25:09;;;;;;;47.55;27.65;;;;;;;18.73;98.88;99632.41;10231208;28;20051;-77
2023/08/25 22:30:14;;;;;;;46.20;29.23;;;;;;;18.87;98.64;99635.25;10259539;28;20052;-77
2023/08/25 22:35:17;;;;;;;52.72;29.73;;;;;;;18.74;98.46;99638.69;10263213;28;20628;-77
2023/08/25 22:40:20;;;;;;;50.85;29.90;;;;;;;18.73;98.65;99637.84;10255714;28;20046;-77
2023/08/25 22:45:24;;;;;;;57.65;30.98;;;;;;;18.68;98.47;99645.75;10253766;28;20051;-76
2023/08/25 22:50:27;;;;;;;56.92;31.30;;;;;;;18.73;98.29;99651.47;10245068;28;20042;-76
2023/08/25 22:55:30;;;;;;;55.28;30.95;;;;;;;18.74;98.31;99655.03;10252799;28;20179;-78
2023/08/25 23:00:36;;;;;;;61.80;31.65;;;;;;;18.74;97.92;99660.47;10264753;28;21238;-77
2023/08/25 23:05:39;;;;;;;56.33;35.30;;;;;;;18.70;97.85;99653.72;10253275;28;20093;-77
2023/08/25 23:10:42;;;;;;;66.13;35.83;;;;;;;18.60;98.46;99681.25;10252169;28;20066;-78
2023/08/25 23:15:49;;;;;;;72.15;41.38;;;;;;;18.62;98.78;99679.16;10251593;28;20053;-77
2023/08/25 23:20:53;;;;;;;72.07;40.78;;;;;;;18.57;99.34;99679.75;10252296;28;20054;-78
2023/08/25 23:25:56;;;;;;;66.75;33.90;;;;;;;18.35;100.00;99681.63;10252867;28;20063;-76